LGX01L LFPO-LIMG
Flight info
| Callsign | LGX01L |
|---|---|
| Flight time | 1h 9m |
| Altitude | 35000 |
| Route | OKASI DCT OKEKO DCT MOU DCT MADIV DCT MOKIP DCT TUFTA DCT GEVEA DCT MOBLO/N0454F290 DCT LURAG DCT OBUXA DCT ASTIG DCT TESTO DCT OTMUV M858 UNITA |
| Aircraft | CL60/M-SADE3FGHIJ3J4J7P2RWXY/HB1D1 |
Departure
| Time | 2026-04-23 08:33 |
|---|---|
| Airport | Paris-Orly Airport (LFPO) |
Arrival
| Time | 2026-04-23 09:42 |
|---|---|
| Airport | Riviera Villanova d'Albenga International Airport (LIMG) |
| Time | Latitude | Longitude | Altitude | Speed | Heading |
|---|---|---|---|---|---|
| 2026-04-23 08:09 | 48.72718 | 2.35389 | 278 ft | 0 kts | 293° |
| 2026-04-23 08:30 | 48.72734 | 2.35383 | 279 ft | 7 kts | 34° |
| 2026-04-23 08:30 | 48.72722 | 2.35477 | 277 ft | 9 kts | 126° |
| 2026-04-23 08:30 | 48.72653 | 2.35518 | 277 ft | 14 kts | 165° |
| 2026-04-23 08:31 | 48.72533 | 2.35568 | 277 ft | 19 kts | 163° |
| 2026-04-23 08:31 | 48.72397 | 2.35625 | 277 ft | 15 kts | 164° |
| 2026-04-23 08:31 | 48.72300 | 2.35622 | 277 ft | 17 kts | 199° |
| 2026-04-23 08:31 | 48.72188 | 2.35617 | 277 ft | 15 kts | 164° |
| 2026-04-23 08:32 | 48.72086 | 2.35667 | 277 ft | 10 kts | 156° |
| 2026-04-23 08:32 | 48.72035 | 2.35740 | 278 ft | 13 kts | 121° |
| 2026-04-23 08:32 | 48.71983 | 2.35882 | 280 ft | 16 kts | 116° |
| 2026-04-23 08:32 | 48.71972 | 2.36032 | 280 ft | 14 kts | 71° |
| 2026-04-23 08:33 | 48.71981 | 2.36076 | 280 ft | 0 kts | 73° |
| 2026-04-23 08:33 | 48.72011 | 2.36234 | 280 ft | 53 kts | 74° |
| 2026-04-23 08:33 | 48.72207 | 2.37295 | 335 ft | 145 kts | 73° |
| 2026-04-23 08:33 | 48.72498 | 2.38857 | 1089 ft | 168 kts | 75° |
| 2026-04-23 08:34 | 48.72802 | 2.40534 | 2271 ft | 176 kts | 75° |
| 2026-04-23 08:34 | 48.73151 | 2.42406 | 3098 ft | 198 kts | 75° |
| 2026-04-23 08:34 | 48.73539 | 2.44468 | 4074 ft | 222 kts | 75° |
| 2026-04-23 08:34 | 48.73972 | 2.46769 | 5365 ft | 239 kts | 75° |
| 2026-04-23 08:35 | 48.74293 | 2.49197 | 6828 ft | 247 kts | 85° |
| 2026-04-23 08:35 | 48.74359 | 2.51740 | 8263 ft | 254 kts | 87° |
| 2026-04-23 08:35 | 48.74417 | 2.54422 | 9640 ft | 262 kts | 86° |
| 2026-04-23 08:35 | 48.74400 | 2.57119 | 10969 ft | 270 kts | 97° |
| 2026-04-23 08:36 | 48.73665 | 2.59746 | 12287 ft | 282 kts | 125° |
| 2026-04-23 08:36 | 48.72094 | 2.61486 | 13528 ft | 297 kts | 156° |
| 2026-04-23 08:36 | 48.70042 | 2.62055 | 14721 ft | 309 kts | 170° |
| 2026-04-23 08:36 | 48.67928 | 2.62361 | 15889 ft | 314 kts | 171° |
| 2026-04-23 08:37 | 48.65759 | 2.62646 | 17052 ft | 320 kts | 175° |
| 2026-04-23 08:37 | 48.63528 | 2.62186 | 18165 ft | 330 kts | 195° |
| 2026-04-23 08:37 | 48.61457 | 2.60759 | 19127 ft | 339 kts | 205° |
| 2026-04-23 08:37 | 48.59352 | 2.59114 | 20061 ft | 346 kts | 204° |
| 2026-04-23 08:38 | 48.57201 | 2.57445 | 20988 ft | 352 kts | 205° |
| 2026-04-23 08:38 | 48.55006 | 2.55743 | 21869 ft | 359 kts | 205° |
| 2026-04-23 08:38 | 48.52777 | 2.54019 | 22743 ft | 364 kts | 205° |
| 2026-04-23 08:38 | 48.50514 | 2.52270 | 23570 ft | 370 kts | 205° |
| 2026-04-23 08:39 | 48.48143 | 2.50779 | 24361 ft | 374 kts | 192° |
| 2026-04-23 08:39 | 48.45574 | 2.50352 | 25081 ft | 376 kts | 174° |
| 2026-04-23 08:39 | 48.43059 | 2.51174 | 25762 ft | 377 kts | 154° |
| 2026-04-23 08:39 | 48.40699 | 2.52906 | 26402 ft | 382 kts | 149° |
| 2026-04-23 08:40 | 48.38329 | 2.54748 | 27104 ft | 387 kts | 149° |
| 2026-04-23 08:40 | 48.35933 | 2.56599 | 27732 ft | 392 kts | 149° |
| 2026-04-23 08:40 | 48.33509 | 2.58468 | 28364 ft | 397 kts | 149° |
| 2026-04-23 08:40 | 48.31015 | 2.60390 | 28912 ft | 404 kts | 150° |
| 2026-04-23 08:41 | 48.28490 | 2.62332 | 29413 ft | 411 kts | 150° |
| 2026-04-23 08:41 | 48.25908 | 2.64321 | 29737 ft | 423 kts | 150° |
| 2026-04-23 08:41 | 48.23192 | 2.66415 | 29743 ft | 442 kts | 151° |
| 2026-04-23 08:41 | 48.20403 | 2.68561 | 29751 ft | 459 kts | 151° |
| 2026-04-23 08:42 | 48.17495 | 2.70794 | 29818 ft | 473 kts | 151° |
| 2026-04-23 08:42 | 48.14545 | 2.73055 | 29992 ft | 483 kts | 151° |
| 2026-04-23 08:42 | 48.11552 | 2.75346 | 30358 ft | 487 kts | 152° |
| 2026-04-23 08:42 | 48.08495 | 2.77645 | 30827 ft | 488 kts | 154° |
| 2026-04-23 08:43 | 48.05382 | 2.79685 | 31369 ft | 487 kts | 156° |
| 2026-04-23 08:43 | 48.02234 | 2.81687 | 31982 ft | 484 kts | 156° |
| 2026-04-23 08:43 | 47.99129 | 2.83663 | 32471 ft | 483 kts | 156° |
| 2026-04-23 08:43 | 47.96084 | 2.85597 | 32990 ft | 481 kts | 156° |
| 2026-04-23 08:44 | 47.92971 | 2.87574 | 33494 ft | 479 kts | 156° |
| 2026-04-23 08:44 | 47.89926 | 2.89504 | 33921 ft | 479 kts | 156° |
| 2026-04-23 08:44 | 47.86868 | 2.91439 | 34333 ft | 478 kts | 156° |
| 2026-04-23 08:44 | 47.83816 | 2.93369 | 34647 ft | 479 kts | 156° |
| 2026-04-23 08:45 | 47.80747 | 2.95308 | 34943 ft | 480 kts | 156° |
| 2026-04-23 08:45 | 47.77677 | 2.97244 | 35209 ft | 481 kts | 156° |
| 2026-04-23 08:45 | 47.71442 | 3.01169 | 35267 ft | 492 kts | 156° |
| 2026-04-23 08:46 | 47.65174 | 3.05104 | 35262 ft | 492 kts | 156° |
| 2026-04-23 08:46 | 47.58875 | 3.09048 | 35259 ft | 491 kts | 156° |
| 2026-04-23 08:47 | 47.52557 | 3.12993 | 35273 ft | 491 kts | 156° |
| 2026-04-23 08:47 | 47.46289 | 3.16895 | 35276 ft | 492 kts | 156° |
| 2026-04-23 08:48 | 47.39955 | 3.20828 | 35259 ft | 492 kts | 156° |
| 2026-04-23 08:48 | 47.33643 | 3.24737 | 35266 ft | 492 kts | 156° |
| 2026-04-23 08:49 | 47.27364 | 3.28616 | 35248 ft | 493 kts | 156° |
| 2026-04-23 08:49 | 47.21050 | 3.32507 | 35239 ft | 494 kts | 156° |
| 2026-04-23 08:50 | 47.14662 | 3.36433 | 35249 ft | 501 kts | 156° |
| 2026-04-23 08:50 | 47.08214 | 3.40385 | 35241 ft | 505 kts | 156° |
| 2026-04-23 08:51 | 47.01757 | 3.44332 | 35248 ft | 506 kts | 156° |
| 2026-04-23 08:51 | 46.95289 | 3.48276 | 35242 ft | 506 kts | 156° |
| 2026-04-23 08:52 | 46.88760 | 3.52246 | 35236 ft | 506 kts | 156° |
| 2026-04-23 08:52 | 46.82399 | 3.56515 | 35236 ft | 506 kts | 149° |
| 2026-04-23 08:53 | 46.76704 | 3.62487 | 35238 ft | 503 kts | 136° |
| 2026-04-23 08:53 | 46.72019 | 3.70049 | 35242 ft | 499 kts | 123° |
| 2026-04-23 08:54 | 46.68603 | 3.78669 | 35245 ft | 493 kts | 111° |
| 2026-04-23 08:54 | 46.66450 | 3.88102 | 35230 ft | 488 kts | 100° |
| 2026-04-23 08:55 | 46.64806 | 3.97725 | 35232 ft | 488 kts | 101° |
| 2026-04-23 08:55 | 46.63154 | 4.07275 | 35244 ft | 487 kts | 101° |
| 2026-04-23 08:56 | 46.61501 | 4.16778 | 35243 ft | 486 kts | 100° |
| 2026-04-23 08:56 | 46.59850 | 4.26215 | 35248 ft | 485 kts | 101° |
| 2026-04-23 08:57 | 46.58187 | 4.35666 | 35251 ft | 484 kts | 101° |
| 2026-04-23 08:57 | 46.56513 | 4.45128 | 35253 ft | 482 kts | 101° |
| 2026-04-23 08:58 | 46.54848 | 4.54490 | 35258 ft | 481 kts | 101° |
| 2026-04-23 08:58 | 46.53169 | 4.63879 | 35240 ft | 480 kts | 101° |
| 2026-04-23 08:59 | 46.51494 | 4.73200 | 35231 ft | 480 kts | 102° |
| 2026-04-23 08:59 | 46.49805 | 4.82547 | 35243 ft | 479 kts | 102° |
| 2026-04-23 09:00 | 46.48126 | 4.91793 | 35246 ft | 478 kts | 102° |
| 2026-04-23 09:00 | 46.46420 | 5.01134 | 35266 ft | 477 kts | 102° |
| 2026-04-23 09:01 | 46.44717 | 5.10417 | 35264 ft | 476 kts | 102° |
| 2026-04-23 09:01 | 46.43025 | 5.19613 | 35268 ft | 476 kts | 102° |
| 2026-04-23 09:02 | 46.41316 | 5.28852 | 35265 ft | 475 kts | 102° |
| 2026-04-23 09:02 | 46.39598 | 5.38095 | 35267 ft | 475 kts | 102° |
| 2026-04-23 09:03 | 46.37888 | 5.47286 | 35258 ft | 474 kts | 102° |
| 2026-04-23 09:03 | 46.36174 | 5.56483 | 35254 ft | 473 kts | 102° |
| 2026-04-23 09:04 | 46.34460 | 5.65636 | 35247 ft | 472 kts | 102° |
| 2026-04-23 09:04 | 46.32749 | 5.74729 | 35252 ft | 472 kts | 103° |
| 2026-04-23 09:05 | 46.31025 | 5.83848 | 35263 ft | 471 kts | 103° |
| 2026-04-23 09:05 | 46.29296 | 5.92949 | 35272 ft | 470 kts | 103° |
| 2026-04-23 09:06 | 46.27563 | 6.02012 | 35279 ft | 469 kts | 103° |
| 2026-04-23 09:06 | 46.25110 | 6.10756 | 35278 ft | 474 kts | 116° |
| 2026-04-23 09:07 | 46.21287 | 6.18530 | 35276 ft | 477 kts | 129° |
| 2026-04-23 09:07 | 46.16512 | 6.25150 | 35278 ft | 479 kts | 134° |
| 2026-04-23 09:08 | 46.11616 | 6.31697 | 35270 ft | 479 kts | 134° |
| 2026-04-23 09:08 | 46.06749 | 6.38189 | 35260 ft | 478 kts | 134° |
| 2026-04-23 09:09 | 46.01897 | 6.44643 | 35274 ft | 478 kts | 134° |
| 2026-04-23 09:09 | 45.97034 | 6.51096 | 35264 ft | 478 kts | 134° |
| 2026-04-23 09:10 | 45.89680 | 6.60823 | 35257 ft | 477 kts | 134° |
| 2026-04-23 09:11 | 45.84819 | 6.67232 | 35238 ft | 477 kts | 135° |
| 2026-04-23 09:11 | 45.79933 | 6.73654 | 35244 ft | 477 kts | 135° |
| 2026-04-23 09:12 | 45.75060 | 6.80017 | 35257 ft | 477 kts | 135° |
| 2026-04-23 09:12 | 45.70166 | 6.86392 | 35253 ft | 478 kts | 135° |
| 2026-04-23 09:13 | 45.65239 | 6.92793 | 35255 ft | 478 kts | 135° |
| 2026-04-23 09:13 | 45.60334 | 6.99151 | 35248 ft | 478 kts | 135° |
| 2026-04-23 09:14 | 45.55428 | 7.05501 | 35242 ft | 478 kts | 134° |
| 2026-04-23 09:14 | 45.51147 | 7.12656 | 35246 ft | 473 kts | 120° |
| 2026-04-23 09:15 | 45.47666 | 7.20605 | 35244 ft | 473 kts | 118° |
| 2026-04-23 09:15 | 45.44199 | 7.28526 | 35248 ft | 474 kts | 118° |
| 2026-04-23 09:16 | 45.40709 | 7.36464 | 35241 ft | 474 kts | 119° |
| 2026-04-23 09:16 | 45.36946 | 7.44167 | 35278 ft | 475 kts | 122° |
| 2026-04-23 09:17 | 45.33131 | 7.51840 | 35258 ft | 475 kts | 122° |
| 2026-04-23 09:17 | 45.29306 | 7.59513 | 35242 ft | 475 kts | 122° |
| 2026-04-23 09:18 | 45.25499 | 7.67130 | 35248 ft | 474 kts | 123° |
| 2026-04-23 09:18 | 45.21685 | 7.74744 | 35244 ft | 475 kts | 122° |
| 2026-04-23 09:19 | 45.17859 | 7.82360 | 35251 ft | 476 kts | 122° |
| 2026-04-23 09:19 | 45.14013 | 7.89996 | 35241 ft | 475 kts | 123° |
| 2026-04-23 09:20 | 45.10133 | 7.97678 | 35252 ft | 475 kts | 123° |
| 2026-04-23 09:20 | 45.06281 | 8.05283 | 35051 ft | 470 kts | 123° |
| 2026-04-23 09:20 | 45.04387 | 8.09013 | 34547 ft | 463 kts | 123° |
| 2026-04-23 09:21 | 45.02526 | 8.12674 | 33968 ft | 458 kts | 122° |
| 2026-04-23 09:21 | 45.00686 | 8.16291 | 33351 ft | 453 kts | 122° |
| 2026-04-23 09:21 | 44.98860 | 8.19873 | 32760 ft | 447 kts | 122° |
| 2026-04-23 09:21 | 44.97065 | 8.23392 | 32178 ft | 441 kts | 123° |
| 2026-04-23 09:22 | 44.95268 | 8.26815 | 31592 ft | 436 kts | 126° |
| 2026-04-23 09:22 | 44.93192 | 8.29957 | 31009 ft | 432 kts | 133° |
| 2026-04-23 09:22 | 44.90913 | 8.32629 | 30422 ft | 429 kts | 138° |
| 2026-04-23 09:22 | 44.88592 | 8.35161 | 29872 ft | 421 kts | 138° |
| 2026-04-23 09:23 | 44.86297 | 8.37670 | 29316 ft | 413 kts | 138° |
| 2026-04-23 09:23 | 44.84057 | 8.40115 | 28777 ft | 406 kts | 138° |
| 2026-04-23 09:23 | 44.81846 | 8.42528 | 28243 ft | 400 kts | 137° |
| 2026-04-23 09:23 | 44.79681 | 8.44888 | 27719 ft | 393 kts | 137° |
| 2026-04-23 09:24 | 44.77518 | 8.47244 | 27198 ft | 387 kts | 137° |
| 2026-04-23 09:24 | 44.75441 | 8.49504 | 26699 ft | 381 kts | 137° |
| 2026-04-23 09:24 | 44.73357 | 8.51769 | 26196 ft | 376 kts | 137° |
| 2026-04-23 09:24 | 44.71311 | 8.53992 | 25701 ft | 370 kts | 137° |
| 2026-04-23 09:25 | 44.69302 | 8.56173 | 25216 ft | 365 kts | 137° |
| 2026-04-23 09:25 | 44.67300 | 8.58344 | 24734 ft | 359 kts | 137° |
| 2026-04-23 09:25 | 44.65337 | 8.60471 | 24264 ft | 354 kts | 137° |
| 2026-04-23 09:25 | 44.63412 | 8.62554 | 23800 ft | 349 kts | 137° |
| 2026-04-23 09:26 | 44.61504 | 8.64618 | 23342 ft | 344 kts | 137° |
| 2026-04-23 09:26 | 44.59616 | 8.66624 | 22889 ft | 340 kts | 139° |
| 2026-04-23 09:26 | 44.57701 | 8.68505 | 22448 ft | 335 kts | 140° |
| 2026-04-23 09:26 | 44.55801 | 8.70356 | 22004 ft | 330 kts | 140° |
| 2026-04-23 09:27 | 44.53926 | 8.72181 | 21564 ft | 326 kts | 140° |
| 2026-04-23 09:27 | 44.52089 | 8.73968 | 21143 ft | 322 kts | 140° |
| 2026-04-23 09:27 | 44.50258 | 8.75752 | 20711 ft | 323 kts | 140° |
| 2026-04-23 09:27 | 44.48425 | 8.77534 | 20291 ft | 322 kts | 140° |
| 2026-04-23 09:28 | 44.46590 | 8.79316 | 19869 ft | 320 kts | 140° |
| 2026-04-23 09:28 | 44.44766 | 8.81086 | 19450 ft | 319 kts | 140° |
| 2026-04-23 09:28 | 44.42930 | 8.82865 | 19022 ft | 318 kts | 141° |
| 2026-04-23 09:28 | 44.41142 | 8.84596 | 18608 ft | 316 kts | 140° |
| 2026-04-23 09:29 | 44.39340 | 8.86340 | 18188 ft | 314 kts | 141° |
| 2026-04-23 09:29 | 44.37544 | 8.88077 | 17776 ft | 313 kts | 140° |
| 2026-04-23 09:29 | 44.35766 | 8.89795 | 17359 ft | 312 kts | 140° |
| 2026-04-23 09:29 | 44.34002 | 8.91497 | 16957 ft | 310 kts | 141° |
| 2026-04-23 09:30 | 44.32216 | 8.93220 | 16537 ft | 309 kts | 141° |
| 2026-04-23 09:30 | 44.30461 | 8.94912 | 16138 ft | 308 kts | 141° |
| 2026-04-23 09:30 | 44.28707 | 8.96601 | 15731 ft | 307 kts | 141° |
| 2026-04-23 09:30 | 44.26905 | 8.98236 | 15301 ft | 310 kts | 149° |
| 2026-04-23 09:31 | 44.24825 | 8.99166 | 14604 ft | 323 kts | 167° |
| 2026-04-23 09:31 | 44.22570 | 8.99200 | 14052 ft | 330 kts | 185° |
| 2026-04-23 09:31 | 44.20365 | 8.98280 | 13442 ft | 336 kts | 204° |
| 2026-04-23 09:31 | 44.18414 | 8.96447 | 12373 ft | 353 kts | 224° |
| 2026-04-23 09:32 | 44.17044 | 8.93682 | 11724 ft | 338 kts | 248° |
| 2026-04-23 09:32 | 44.16308 | 8.90735 | 11417 ft | 321 kts | 255° |
| 2026-04-23 09:32 | 44.15681 | 8.87818 | 11028 ft | 308 kts | 255° |
| 2026-04-23 09:32 | 44.15075 | 8.85016 | 10635 ft | 298 kts | 255° |
| 2026-04-23 09:33 | 44.14486 | 8.82300 | 10244 ft | 289 kts | 255° |
| 2026-04-23 09:33 | 44.13911 | 8.79650 | 9872 ft | 283 kts | 255° |
| 2026-04-23 09:33 | 44.13348 | 8.77054 | 9486 ft | 279 kts | 255° |
| 2026-04-23 09:33 | 44.12800 | 8.74530 | 9135 ft | 273 kts | 255° |
| 2026-04-23 09:34 | 44.12255 | 8.72025 | 8770 ft | 268 kts | 255° |
| 2026-04-23 09:34 | 44.11723 | 8.69583 | 8453 ft | 260 kts | 256° |
| 2026-04-23 09:34 | 44.11215 | 8.67259 | 8100 ft | 245 kts | 256° |
| 2026-04-23 09:34 | 44.10732 | 8.65048 | 7765 ft | 238 kts | 256° |
| 2026-04-23 09:35 | 44.10250 | 8.62835 | 7252 ft | 236 kts | 256° |
| 2026-04-23 09:35 | 44.09782 | 8.60700 | 6942 ft | 227 kts | 256° |
| 2026-04-23 09:35 | 44.09326 | 8.58615 | 6608 ft | 226 kts | 256° |
| 2026-04-23 09:35 | 44.08872 | 8.56538 | 6304 ft | 224 kts | 256° |
| 2026-04-23 09:36 | 44.08421 | 8.54477 | 5998 ft | 223 kts | 256° |
| 2026-04-23 09:36 | 44.07951 | 8.52418 | 5711 ft | 223 kts | 255° |
| 2026-04-23 09:36 | 44.07464 | 8.50387 | 5405 ft | 221 kts | 255° |
| 2026-04-23 09:36 | 44.06984 | 8.48389 | 5122 ft | 220 kts | 255° |
| 2026-04-23 09:37 | 44.06503 | 8.46385 | 4828 ft | 219 kts | 254° |
| 2026-04-23 09:37 | 44.06023 | 8.44388 | 4541 ft | 215 kts | 254° |
| 2026-04-23 09:37 | 44.05561 | 8.42471 | 4269 ft | 205 kts | 254° |
| 2026-04-23 09:37 | 44.05140 | 8.40638 | 4025 ft | 194 kts | 259° |
| 2026-04-23 09:38 | 44.05049 | 8.38789 | 3991 ft | 194 kts | 274° |
| 2026-04-23 09:38 | 44.05065 | 8.36910 | 3855 ft | 197 kts | 273° |
| 2026-04-23 09:38 | 44.05060 | 8.35018 | 3547 ft | 193 kts | 272° |
| 2026-04-23 09:38 | 44.05049 | 8.33197 | 3285 ft | 185 kts | 271° |
| 2026-04-23 09:39 | 44.05039 | 8.31444 | 3005 ft | 179 kts | 271° |
| 2026-04-23 09:39 | 44.05029 | 8.29772 | 2747 ft | 169 kts | 271° |
| 2026-04-23 09:39 | 44.05020 | 8.28200 | 2457 ft | 151 kts | 270° |
| 2026-04-23 09:39 | 44.05011 | 8.26820 | 2281 ft | 141 kts | 270° |
| 2026-04-23 09:40 | 44.05004 | 8.25470 | 2034 ft | 140 kts | 270° |
| 2026-04-23 09:40 | 44.04997 | 8.24121 | 1814 ft | 138 kts | 270° |
| 2026-04-23 09:40 | 44.04989 | 8.22797 | 1607 ft | 138 kts | 269° |
| 2026-04-23 09:40 | 44.04980 | 8.21480 | 1458 ft | 137 kts | 269° |
| 2026-04-23 09:41 | 44.04953 | 8.20163 | 1348 ft | 136 kts | 267° |
| 2026-04-23 09:41 | 44.04920 | 8.18840 | 1136 ft | 136 kts | 268° |
| 2026-04-23 09:41 | 44.04917 | 8.17539 | 858 ft | 134 kts | 270° |
| 2026-04-23 09:41 | 44.04931 | 8.16255 | 615 ft | 133 kts | 271° |
| 2026-04-23 09:42 | 44.04971 | 8.14970 | 371 ft | 132 kts | 272° |
| 2026-04-23 09:42 | 44.05022 | 8.13706 | 157 ft | 132 kts | 273° |
| 2026-04-23 09:42 | 44.05064 | 8.12558 | 138 ft | 85 kts | 271° |
| 2026-04-23 09:42 | 44.05079 | 8.12114 | 153 ft | 34 kts | 271° |
| 2026-04-23 09:43 | 44.05071 | 8.11914 | 160 ft | 14 kts | 226° |
| 2026-04-23 09:43 | 44.04977 | 8.11868 | 165 ft | 14 kts | 185° |
| 2026-04-23 09:43 | 44.04885 | 8.11921 | 167 ft | 16 kts | 135° |
| 2026-04-23 09:43 | 44.04800 | 8.12049 | 167 ft | 19 kts | 133° |
| 2026-04-23 09:44 | 44.04697 | 8.12196 | 165 ft | 20 kts | 134° |
| 2026-04-23 09:44 | 44.04611 | 8.12334 | 159 ft | 13 kts | 118° |
| 2026-04-23 09:44 | 44.04571 | 8.12472 | 153 ft | 15 kts | 105° |
| 2026-04-23 09:44 | 44.04580 | 8.12576 | 147 ft | 7 kts | 75° |
| 2026-04-23 09:45 | 44.04567 | 8.12591 | 147 ft | 2 kts | 187° |
| 2026-04-23 09:45 | 44.04560 | 8.12590 | 147 ft | 0 kts | 185° |